Time;durP1;ratioP1;P1;durP2;ratioP2;P2;SDS_P1;SDS_P2;PMS_P1;PMS_P2;Temp;Humidity;BMP_temperature;BMP_pressure;BME280_temperature;BME280_humidity;BME280_pressure;Samples;Min_cycle;Max_cycle;Signal;HPM_P1;HPM_P2
2020/04/15 00:00:03;;;;;;;2.90;2.25;;;;;;;19.24;32.88;101396.55;;;;-57
2020/04/15 00:03:03;;;;;;;2.39;1.93;;;;;;;19.23;32.90;101393.03;;;;-57
2020/04/15 00:06:03;;;;;;;2.53;2.11;;;;;;;19.23;32.92;101397.38;;;;-58
2020/04/15 00:09:03;;;;;;;2.65;2.11;;;;;;;19.23;32.91;101394.02;;;;-58
2020/04/15 00:12:03;;;;;;;2.47;2.05;;;;;;;19.21;32.95;101389.48;;;;-57
2020/04/15 00:15:03;;;;;;;2.29;2.02;;;;;;;19.21;32.93;101388.72;;;;-58
2020/04/15 00:18:02;;;;;;;2.87;2.31;;;;;;;19.20;32.89;101395.63;;;;-58
2020/04/15 00:21:03;;;;;;;2.98;2.02;;;;;;;19.19;32.93;101394.39;;;;-57
2020/04/15 00:24:03;;;;;;;2.09;1.89;;;;;;;19.18;32.96;101389.41;;;;-57
2020/04/15 00:27:03;;;;;;;2.37;2.11;;;;;;;19.17;32.97;101390.92;;;;-57
2020/04/15 00:30:03;;;;;;;2.35;1.99;;;;;;;19.17;32.91;101386.45;;;;-57
2020/04/15 00:33:03;;;;;;;3.01;2.11;;;;;;;19.16;32.97;101378.74;;;;-57
2020/04/15 00:36:03;;;;;;;2.39;2.14;;;;;;;19.15;32.98;101377.40;;;;-58
2020/04/15 00:39:03;;;;;;;2.35;2.01;;;;;;;19.15;32.99;101381.38;;;;-58
2020/04/15 00:42:03;;;;;;;3.49;2.20;;;;;;;19.14;33.05;101385.33;;;;-58
2020/04/15 00:45:03;;;;;;;2.82;2.07;;;;;;;19.14;32.99;101379.08;;;;-58
2020/04/15 00:48:03;;;;;;;3.06;2.55;;;;;;;19.12;32.98;101380.81;;;;-58
2020/04/15 00:51:03;;;;;;;2.65;2.30;;;;;;;19.11;33.03;101373.95;;;;-58
2020/04/15 00:54:03;;;;;;;3.38;2.74;;;;;;;19.11;32.96;101361.72;;;;-57
2020/04/15 00:57:02;;;;;;;2.98;2.61;;;;;;;19.10;32.99;101359.59;;;;-58
2020/04/15 01:00:02;;;;;;;2.87;2.07;;;;;;;19.10;32.97;101360.66;;;;-58
2020/04/15 01:03:03;;;;;;;2.63;2.29;;;;;;;19.08;33.04;101363.16;;;;-57
2020/04/15 01:06:03;;;;;;;2.53;2.33;;;;;;;19.07;33.06;101370.80;;;;-57
2020/04/15 01:09:03;;;;;;;3.23;2.93;;;;;;;19.07;33.03;101374.27;;;;-58
2020/04/15 01:12:03;;;;;;;3.36;3.06;;;;;;;19.07;32.97;101369.02;;;;-58
2020/04/15 01:15:03;;;;;;;3.67;3.32;;;;;;;19.05;33.02;101353.32;;;;-58
2020/04/15 01:18:03;;;;;;;2.69;2.14;;;;;;;19.05;33.06;101349.13;;;;-58
2020/04/15 01:21:02;;;;;;;2.43;2.01;;;;;;;19.05;33.12;101351.20;;;;-58
2020/04/15 01:24:07;;;;;;;2.21;2.00;;;;;;;19.04;33.03;101346.63;;;;-58
2020/04/15 01:27:05;;;;;;;7.02;6.51;;;;;;;19.03;33.00;101350.17;;;;-58
2020/04/15 01:30:03;;;;;;;5.77;5.34;;;;;;;19.03;33.06;101357.39;;;;-58
2020/04/15 01:33:03;;;;;;;2.93;2.70;;;;;;;19.02;33.06;101361.45;;;;-57
2020/04/15 01:36:03;;;;;;;3.39;3.09;;;;;;;19.02;33.00;101365.84;;;;-57
2020/04/15 01:39:03;;;;;;;3.75;3.45;;;;;;;19.00;33.06;101370.20;;;;-57
2020/04/15 01:42:03;;;;;;;4.43;4.11;;;;;;;19.01;33.02;101374.44;;;;-58
2020/04/15 01:45:03;;;;;;;4.69;4.24;;;;;;;19.00;33.04;101375.77;;;;-58
2020/04/15 01:48:03;;;;;;;5.23;4.89;;;;;;;19.00;33.08;101376.44;;;;-58
2020/04/15 01:51:03;;;;;;;4.73;4.41;;;;;;;18.98;33.04;101375.83;;;;-57
2020/04/15 01:54:03;;;;;;;5.13;4.71;;;;;;;18.98;33.08;101374.92;;;;-58
2020/04/15 01:57:02;;;;;;;2.81;2.59;;;;;;;18.97;33.11;101374.02;;;;-57
2020/04/15 02:00:03;;;;;;;5.24;4.82;;;;;;;18.96;33.07;101379.16;;;;-57
2020/04/15 02:03:02;;;;;;;4.19;3.89;;;;;;;18.96;33.08;101378.38;;;;-58
2020/04/15 02:06:03;;;;;;;2.37;1.97;;;;;;;18.94;33.08;101378.38;;;;-58
2020/04/15 02:09:03;;;;;;;7.67;7.06;;;;;;;18.95;33.00;101380.70;;;;-58
2020/04/15 02:12:03;;;;;;;6.58;6.08;;;;;;;18.93;33.11;101374.22;;;;-58
2020/04/15 02:15:03;;;;;;;4.46;4.06;;;;;;;18.93;33.06;101379.08;;;;-58
2020/04/15 02:18:02;;;;;;;5.43;4.99;;;;;;;18.92;33.08;101380.59;;;;-58
2020/04/15 02:21:02;;;;;;;4.49;4.09;;;;;;;18.92;33.03;101380.52;;;;-58
2020/04/15 02:24:02;;;;;;;3.25;2.95;;;;;;;18.92;33.10;101371.55;;;;-57
2020/04/15 02:27:02;;;;;;;2.85;2.30;;;;;;;18.90;33.12;101372.10;;;;-58
2020/04/15 02:30:03;;;;;;;2.57;2.37;;;;;;;18.90;33.16;101371.77;;;;-58
2020/04/15 02:33:03;;;;;;;3.29;2.99;;;;;;;18.90;33.09;101378.11;;;;-58
2020/04/15 02:36:03;;;;;;;3.17;2.89;;;;;;;18.89;33.12;101382.06;;;;-58
2020/04/15 02:39:03;;;;;;;3.53;3.23;;;;;;;18.88;33.13;101374.25;;;;-58
2020/04/15 02:42:03;;;;;;;4.26;3.93;;;;;;;18.88;33.09;101367.39;;;;-57
2020/04/15 02:45:03;;;;;;;7.33;6.70;;;;;;;18.88;33.09;101354.95;;;;-57
2020/04/15 02:48:03;;;;;;;5.69;5.29;;;;;;;18.87;33.12;101342.45;;;;-58
2020/04/15 02:51:03;;;;;;;4.31;3.99;;;;;;;18.86;33.07;101337.53;;;;-58
2020/04/15 02:54:03;;;;;;;6.26;5.76;;;;;;;18.85;33.17;101342.72;;;;-58
2020/04/15 02:57:03;;;;;;;4.52;4.12;;;;;;;18.85;33.15;101345.55;;;;-57
2020/04/15 03:00:02;;;;;;;6.99;6.43;;;;;;;18.84;33.15;101346.22;;;;-58
2020/04/15 03:03:03;;;;;;;5.79;5.39;;;;;;;18.84;33.15;101326.76;;;;-58
2020/04/15 03:06:03;;;;;;;2.06;1.86;;;;;;;18.83;33.13;101313.92;;;;-58
2020/04/15 03:09:03;;;;;;;2.03;1.80;;;;;;;18.82;33.14;101325.95;;;;-58
2020/04/15 03:12:02;;;;;;;3.24;2.03;;;;;;;18.82;33.22;101346.59;;;;-58
2020/04/15 03:15:03;;;;;;;7.12;6.59;;;;;;;18.81;33.14;101340.79;;;;-58
2020/04/15 03:18:03;;;;;;;5.32;4.91;;;;;;;18.80;33.17;101333.31;;;;-58
2020/04/15 03:21:03;;;;;;;6.31;5.81;;;;;;;18.79;33.19;101328.95;;;;-58
2020/04/15 03:24:03;;;;;;;6.79;6.25;;;;;;;18.79;33.20;101335.98;;;;-57
2020/04/15 03:27:03;;;;;;;3.79;3.48;;;;;;;18.79;33.16;101329.23;;;;-57
2020/04/15 03:30:03;;;;;;;2.95;2.67;;;;;;;18.78;33.16;101315.84;;;;-57
2020/04/15 03:33:27;;;;;;;4.15;3.85;;;;;;;18.77;33.11;101315.98;;;;-58
2020/04/15 03:36:23;;;;;;;2.13;1.82;;;;;;;18.77;33.17;101321.92;;;;-58
2020/04/15 03:39:08;;;;;;;3.80;3.41;;;;;;;18.76;33.20;101324.25;;;;-58
2020/04/15 03:42:22;;;;;;;3.31;3.08;;;;;;;18.78;33.21;101330.11;;;;-58
2020/04/15 03:45:09;;;;;;;1.99;1.79;;;;;;;18.78;33.30;101328.45;;;;-58
2020/04/15 03:48:10;;;;;;;2.10;1.90;;;;;;;18.79;33.32;101328.57;;;;-58
2020/04/15 03:51:06;;;;;;;2.23;1.91;;;;;;;18.81;33.37;101334.43;;;;-57
2020/04/15 03:54:02;;;;;;;5.25;4.85;;;;;;;18.83;33.40;101344.05;;;;-58
2020/04/15 03:57:03;;;;;;;3.52;3.02;;;;;;;18.86;33.35;101346.46;;;;-58
2020/04/15 04:00:03;;;;;;;4.49;4.19;;;;;;;18.89;33.39;101351.00;;;;-58
2020/04/15 04:03:03;;;;;;;2.33;1.77;;;;;;;18.91;33.37;101352.58;;;;-57
2020/04/15 04:06:03;;;;;;;4.98;4.58;;;;;;;18.94;33.46;101352.77;;;;-58
2020/04/15 04:09:03;;;;;;;5.77;5.35;;;;;;;18.99;33.46;101352.88;;;;-58
2020/04/15 04:12:02;;;;;;;4.59;4.24;;;;;;;19.03;33.48;101352.02;;;;-57
2020/04/15 04:15:03;;;;;;;5.84;4.42;;;;;;;19.06;33.53;101354.03;;;;-58
2020/04/15 04:18:03;;;;;;;3.29;2.99;;;;;;;19.12;33.49;101363.52;;;;-58
2020/04/15 04:21:03;;;;;;;2.97;2.71;;;;;;;19.13;33.58;101365.67;;;;-58
2020/04/15 04:24:03;;;;;;;3.93;3.63;;;;;;;19.17;33.51;101369.44;;;;-58
2020/04/15 04:27:02;;;;;;;5.11;4.69;;;;;;;19.19;33.56;101364.41;;;;-58
2020/04/15 04:30:02;;;;;;;2.29;2.05;;;;;;;19.21;33.57;101365.95;;;;-58
2020/04/15 04:33:03;;;;;;;3.28;3.02;;;;;;;19.24;33.59;101364.95;;;;-58
2020/04/15 04:36:03;;;;;;;2.88;2.15;;;;;;;19.26;33.55;101370.52;;;;-58
2020/04/15 04:39:03;;;;;;;2.69;2.00;;;;;;;19.27;33.55;101376.36;;;;-58
2020/04/15 04:42:03;;;;;;;3.41;3.11;;;;;;;19.29;33.50;101383.67;;;;-58
2020/04/15 04:45:03;;;;;;;2.57;2.37;;;;;;;19.30;33.52;101388.66;;;;-57
2020/04/15 04:48:03;;;;;;;2.63;2.43;;;;;;;19.31;33.51;101383.35;;;;-57
2020/04/15 04:51:02;;;;;;;3.74;3.44;;;;;;;19.33;33.45;101383.91;;;;-57
2020/04/15 04:54:02;;;;;;;2.62;1.98;;;;;;;19.33;33.49;101387.44;;;;-57
2020/04/15 04:57:02;;;;;;;2.48;2.21;;;;;;;19.34;33.48;101391.91;;;;-58
2020/04/15 05:00:03;;;;;;;2.85;2.65;;;;;;;19.34;33.45;101396.93;;;;-58
2020/04/15 05:03:03;;;;;;;3.49;3.19;;;;;;;19.35;33.45;101408.81;;;;-57
2020/04/15 05:06:03;;;;;;;4.11;3.81;;;;;;;19.35;33.43;101410.15;;;;-57
2020/04/15 05:09:12;;;;;;;2.39;1.80;;;;;;;19.34;33.39;101406.36;;;;-57
2020/04/15 05:12:03;;;;;;;2.87;2.64;;;;;;;19.35;33.39;101404.70;;;;-58
2020/04/15 05:15:02;;;;;;;2.80;2.51;;;;;;;19.35;33.36;101405.64;;;;-57
2020/04/15 05:18:02;;;;;;;2.05;1.79;;;;;;;19.35;33.27;101410.61;;;;-58
2020/04/15 05:21:03;;;;;;;2.03;1.83;;;;;;;19.34;33.32;101409.27;;;;-58
2020/04/15 05:24:03;;;;;;;2.51;1.91;;;;;;;19.35;33.28;101418.31;;;;-57
2020/04/15 05:27:03;;;;;;;4.95;4.55;;;;;;;19.35;33.27;101418.94;;;;-57
2020/04/15 05:30:03;;;;;;;2.27;1.81;;;;;;;19.34;33.24;101415.45;;;;-57
2020/04/15 05:33:02;;;;;;;2.64;2.15;;;;;;;19.33;33.26;101418.75;;;;-58
2020/04/15 05:36:02;;;;;;;2.09;1.89;;;;;;;19.34;33.28;101429.02;;;;-58
2020/04/15 05:39:03;;;;;;;2.22;1.90;;;;;;;19.33;33.27;101430.37;;;;-57
2020/04/15 05:42:03;;;;;;;2.13;1.89;;;;;;;19.33;33.26;101429.46;;;;-58
2020/04/15 05:45:03;;;;;;;2.00;1.80;;;;;;;19.32;33.23;101422.98;;;;-58
2020/04/15 05:48:03;;;;;;;2.11;1.89;;;;;;;19.32;33.19;101433.04;;;;-58
2020/04/15 05:51:03;;;;;;;4.11;1.90;;;;;;;19.31;33.26;101437.95;;;;-47
2020/04/15 05:54:02;;;;;;;3.98;2.25;;;;;;;19.29;31.57;101438.00;;;;-50
2020/04/15 05:57:03;;;;;;;2.43;2.23;;;;;;;19.29;31.50;101439.39;;;;-46
2020/04/15 06:00:02;;;;;;;2.31;2.08;;;;;;;19.29;31.45;101445.42;;;;-51
2020/04/15 06:03:02;;;;;;;2.38;2.08;;;;;;;19.29;31.63;101446.59;;;;-50
2020/04/15 06:06:03;;;;;;;2.97;2.24;;;;;;;19.30;31.54;101444.59;;;;-47
2020/04/15 06:09:02;;;;;;;3.62;2.17;;;;;;;19.30;31.49;101448.89;;;;-50
2020/04/15 06:12:03;;;;;;;3.00;2.12;;;;;;;19.31;31.56;101452.36;;;;-52
2020/04/15 06:15:02;;;;;;;2.61;2.17;;;;;;;19.31;31.56;101457.05;;;;-51
2020/04/15 06:18:03;;;;;;;3.25;2.10;;;;;;;19.31;31.56;101459.61;;;;-50
2020/04/15 06:21:03;;;;;;;3.58;2.15;;;;;;;19.32;31.65;101463.31;;;;-59
2020/04/15 06:24:02;;;;;;;3.45;2.15;;;;;;;19.34;31.73;101460.36;;;;-59
2020/04/15 06:27:02;;;;;;;3.59;2.05;;;;;;;19.35;32.07;101463.54;;;;-59
2020/04/15 06:30:02;;;;;;;2.84;2.02;;;;;;;19.37;32.23;101463.84;;;;-59
2020/04/15 06:33:03;;;;;;;2.46;1.95;;;;;;;19.38;32.29;101470.20;;;;-60
2020/04/15 06:36:03;;;;;;;2.65;1.85;;;;;;;19.40;32.38;101478.09;;;;-59
2020/04/15 06:39:03;;;;;;;2.43;2.07;;;;;;;19.39;32.45;101479.70;;;;-59
2020/04/15 06:42:03;;;;;;;3.30;2.16;;;;;;;19.40;32.46;101476.86;;;;-59
2020/04/15 06:45:02;;;;;;;2.78;2.08;;;;;;;19.41;32.46;101481.39;;;;-59
2020/04/15 06:48:02;;;;;;;2.96;2.11;;;;;;;19.41;32.54;101479.20;;;;-59
2020/04/15 06:51:02;;;;;;;2.34;1.96;;;;;;;19.42;32.55;101480.95;;;;-59
2020/04/15 06:54:03;;;;;;;2.31;2.11;;;;;;;19.43;32.58;101488.04;;;;-59
2020/04/15 06:57:03;;;;;;;2.66;2.08;;;;;;;19.43;32.66;101488.72;;;;-59
2020/04/15 07:00:03;;;;;;;2.41;1.99;;;;;;;19.44;32.61;101489.84;;;;-59
2020/04/15 07:03:03;;;;;;;3.79;1.97;;;;;;;19.45;32.57;101487.89;;;;-59
2020/04/15 07:06:02;;;;;;;2.56;2.07;;;;;;;19.45;32.60;101482.59;;;;-59
2020/04/15 07:09:04;;;;;;;3.83;2.08;;;;;;;19.45;32.59;101488.00;;;;-59
2020/04/15 07:15:03;;;;;;;2.10;1.90;;;;;;;19.47;32.64;101482.50;;;;-59
2020/04/15 07:18:03;;;;;;;2.65;1.85;;;;;;;19.47;32.67;101483.67;;;;-58
2020/04/15 07:21:03;;;;;;;2.15;1.85;;;;;;;19.47;32.65;101485.10;;;;-59
2020/04/15 07:24:03;;;;;;;2.33;2.07;;;;;;;19.47;32.72;101483.05;;;;-59
2020/04/15 07:27:02;;;;;;;2.40;1.92;;;;;;;19.48;32.63;101480.47;;;;-59
2020/04/15 07:30:03;;;;;;;2.31;2.01;;;;;;;19.48;32.75;101478.70;;;;-60
2020/04/15 07:33:02;;;;;;;2.27;1.97;;;;;;;19.48;32.72;101480.81;;;;-58
2020/04/15 07:36:03;;;;;;;2.89;1.87;;;;;;;19.48;32.68;101481.72;;;;-59
2020/04/15 07:39:03;;;;;;;2.21;2.01;;;;;;;19.50;32.80;101480.55;;;;-59
2020/04/15 07:42:03;;;;;;;2.53;1.99;;;;;;;19.50;32.78;101482.72;;;;-59
2020/04/15 07:45:03;;;;;;;2.25;1.85;;;;;;;19.50;32.81;101480.66;;;;-59
2020/04/15 07:48:03;;;;;;;8.71;1.88;;;;;;;19.51;33.00;101484.80;;;;-56
2020/04/15 07:51:02;;;;;;;2.17;1.97;;;;;;;19.50;32.89;101486.03;;;;-54
2020/04/15 07:54:03;;;;;;;2.91;1.83;;;;;;;19.51;32.58;101483.80;;;;-53
2020/04/15 07:57:03;;;;;;;2.29;1.84;;;;;;;19.51;32.33;101485.69;;;;-53
2020/04/15 08:00:03;;;;;;;3.39;2.11;;;;;;;19.51;32.20;101483.17;;;;-52
2020/04/15 08:03:03;;;;;;;3.04;2.31;;;;;;;19.51;32.19;101479.31;;;;-49
2020/04/15 08:06:02;;;;;;;5.71;2.18;;;;;;;19.52;32.30;101476.42;;;;-50
2020/04/15 08:09:03;;;;;;;2.92;2.32;;;;;;;19.53;32.25;101486.70;;;;-53
2020/04/15 08:12:03;;;;;;;6.15;2.46;;;;;;;19.52;32.21;101484.47;;;;-58
2020/04/15 08:15:03;;;;;;;3.02;2.13;;;;;;;19.53;32.17;101484.20;;;;-59
2020/04/15 08:18:03;;;;;;;3.43;2.05;;;;;;;19.53;32.10;101479.67;;;;-59
2020/04/15 08:21:02;;;;;;;3.81;1.93;;;;;;;19.55;32.34;101478.29;;;;-54
2020/04/15 08:24:03;;;;;;;10.28;2.34;;;;;;;19.56;32.10;101469.36;;;;-56
2020/04/15 08:27:03;;;;;;;3.37;2.19;;;;;;;19.58;32.39;101461.93;;;;-55
2020/04/15 08:30:02;;;;;;;3.10;2.11;;;;;;;19.59;32.51;101465.11;;;;-57
2020/04/15 08:33:02;;;;;;;4.91;2.16;;;;;;;19.62;32.67;101468.03;;;;-56
2020/04/15 08:36:03;;;;;;;2.97;2.11;;;;;;;19.64;32.72;101465.14;;;;-57
2020/04/15 08:39:03;;;;;;;3.00;1.90;;;;;;;19.66;32.79;101461.41;;;;-58
2020/04/15 08:42:02;;;;;;;3.19;2.19;;;;;;;19.67;32.75;101460.64;;;;-54
2020/04/15 08:45:03;;;;;;;3.55;2.00;;;;;;;19.68;32.71;101458.80;;;;-55
2020/04/15 08:48:02;;;;;;;3.21;2.07;;;;;;;19.70;32.70;101457.41;;;;-53
2020/04/15 08:51:03;;;;;;;4.19;2.07;;;;;;;19.70;32.77;101451.33;;;;-56
2020/04/15 08:54:02;;;;;;;3.99;2.11;;;;;;;19.71;32.71;101448.47;;;;-52
2020/04/15 08:57:03;;;;;;;3.09;1.85;;;;;;;19.73;32.86;101450.72;;;;-54
2020/04/15 09:00:03;;;;;;;3.20;2.10;;;;;;;19.74;33.08;101445.47;;;;-55
2020/04/15 09:03:02;;;;;;;3.41;2.12;;;;;;;19.75;32.86;101447.31;;;;-55
2020/04/15 09:06:03;;;;;;;3.21;1.95;;;;;;;19.76;32.86;101442.91;;;;-54
2020/04/15 09:09:03;;;;;;;2.41;1.92;;;;;;;19.76;32.86;101444.59;;;;-56
2020/04/15 09:12:02;;;;;;;3.55;1.97;;;;;;;19.77;32.79;101442.70;;;;-56
2020/04/15 09:15:03;;;;;;;2.83;1.90;;;;;;;19.78;33.00;101441.57;;;;-53
2020/04/15 09:18:03;;;;;;;3.47;1.89;;;;;;;19.80;33.08;101435.31;;;;-54
2020/04/15 09:21:03;;;;;;;2.46;2.10;;;;;;;19.81;33.04;101424.09;;;;-51
2020/04/15 09:24:02;;;;;;;2.77;1.86;;;;;;;19.83;33.09;101415.48;;;;-61
2020/04/15 09:27:02;;;;;;;2.69;1.96;;;;;;;19.84;32.55;101418.07;;;;-48
2020/04/15 09:30:03;;;;;;;3.97;1.99;;;;;;;19.85;32.57;101407.19;;;;-59
2020/04/15 09:33:03;;;;;;;3.08;1.94;;;;;;;19.86;32.83;101408.08;;;;-59
2020/04/15 09:36:03;;;;;;;3.21;1.90;;;;;;;19.87;32.95;101408.52;;;;-58
2020/04/15 09:39:03;;;;;;;3.16;1.67;;;;;;;19.88;33.01;101411.27;;;;-59
2020/04/15 09:42:02;;;;;;;2.64;1.87;;;;;;;19.89;33.12;101406.02;;;;-56
2020/04/15 09:45:03;;;;;;;2.11;1.83;;;;;;;19.91;33.13;101407.41;;;;-60
2020/04/15 09:48:03;;;;;;;3.33;2.07;;;;;;;19.91;33.24;101402.05;;;;-61
2020/04/15 09:51:03;;;;;;;4.79;1.87;;;;;;;19.92;33.31;101404.58;;;;-48
2020/04/15 09:54:02;;;;;;;2.38;1.92;;;;;;;19.93;32.78;101405.69;;;;-60
2020/04/15 09:57:03;;;;;;;3.45;1.87;;;;;;;19.93;33.01;101401.28;;;;-52
2020/04/15 10:00:02;;;;;;;6.07;2.07;;;;;;;19.93;33.07;101404.91;;;;-51
2020/04/15 10:03:02;;;;;;;3.00;1.90;;;;;;;19.95;33.11;101408.88;;;;-52
2020/04/15 10:06:02;;;;;;;2.48;1.90;;;;;;;19.96;33.18;101403.23;;;;-54
2020/04/15 10:09:03;;;;;;;2.23;1.85;;;;;;;19.98;33.30;101400.95;;;;-50
2020/04/15 10:12:02;;;;;;;2.62;1.90;;;;;;;20.00;33.34;101392.38;;;;-51
2020/04/15 10:15:02;;;;;;;3.29;1.86;;;;;;;20.01;33.33;101385.78;;;;-54
2020/04/15 10:18:02;;;;;;;3.38;1.88;;;;;;;20.04;33.24;101380.88;;;;-56
2020/04/15 10:21:03;;;;;;;4.75;1.89;;;;;;;20.06;33.23;101378.41;;;;-55
2020/04/15 10:24:02;;;;;;;2.20;1.82;;;;;;;20.08;33.28;101369.20;;;;-57
2020/04/15 10:27:02;;;;;;;3.02;1.81;;;;;;;20.11;33.32;101371.05;;;;-60
2020/04/15 10:30:03;;;;;;;5.15;1.81;;;;;;;20.12;33.07;101360.81;;;;-61
2020/04/15 10:33:02;;;;;;;8.05;1.75;;;;;;;20.12;32.93;101360.88;;;;-60
2020/04/15 10:36:03;;;;;;;2.96;1.98;;;;;;;20.13;32.80;101357.92;;;;-60
2020/04/15 10:39:03;;;;;;;4.63;1.99;;;;;;;20.13;32.67;101355.23;;;;-60
2020/04/15 10:42:02;;;;;;;1.97;1.77;;;;;;;20.13;32.65;101349.63;;;;-60
2020/04/15 10:45:02;;;;;;;3.45;1.79;;;;;;;20.13;32.61;101342.16;;;;-60
2020/04/15 10:48:02;;;;;;;3.07;2.69;;;;;;;20.13;32.63;101338.06;;;;-60
2020/04/15 10:51:02;;;;;;;2.27;1.76;;;;;;;20.14;32.63;101333.81;;;;-60
2020/04/15 10:54:02;;;;;;;2.97;1.77;;;;;;;20.14;32.54;101337.16;;;;-60
2020/04/15 10:57:12;;;;;;;2.95;2.69;;;;;;;20.14;32.58;101335.33;;;;-60
2020/04/15 11:03:02;;;;;;;6.04;5.58;;;;;;;20.15;32.45;101332.81;;;;-60
2020/04/15 11:06:03;;;;;;;2.56;1.70;;;;;;;20.15;32.50;101322.81;;;;-60
2020/04/15 11:09:02;;;;;;;8.41;7.55;;;;;;;20.15;32.47;101324.66;;;;-60
2020/04/15 11:12:02;;;;;;;28.60;26.35;;;;;;;20.17;32.91;101321.47;;;;-51
2020/04/15 11:15:02;;;;;;;71.78;66.29;;;;;;;20.15;32.19;101322.23;;;;-61
2020/04/15 11:18:03;;;;;;;126.03;115.69;;;;;;;20.16;31.87;101317.50;;;;-58
2020/04/15 11:21:03;;;;;;;3.19;2.93;;;;;;;20.17;32.23;101312.51;;;;-58
2020/04/15 11:24:02;;;;;;;33.96;30.15;;;;;;;20.17;32.31;101315.48;;;;-58
2020/04/15 11:27:02;;;;;;;61.77;56.81;;;;;;;20.18;32.43;101308.20;;;;-58
2020/04/15 11:30:02;;;;;;;3.49;1.73;;;;;;;20.19;32.37;101302.97;;;;-58
2020/04/15 11:33:03;;;;;;;3.27;1.83;;;;;;;20.19;32.35;101296.76;;;;-58
2020/04/15 11:36:03;;;;;;;3.09;1.59;;;;;;;20.20;32.32;101297.98;;;;-57
2020/04/15 11:39:03;;;;;;;2.29;2.02;;;;;;;20.20;32.32;101293.97;;;;-59
2020/04/15 11:42:02;;;;;;;2.91;1.75;;;;;;;20.21;32.38;101293.69;;;;-60
2020/04/15 11:45:02;;;;;;;2.83;1.83;;;;;;;20.22;32.37;101293.57;;;;-58
2020/04/15 11:48:03;;;;;;;2.16;1.59;;;;;;;20.23;32.39;101288.86;;;;-59
2020/04/15 11:51:02;;;;;;;4.09;3.73;;;;;;;20.23;32.46;101281.37;;;;-59
2020/04/15 11:54:03;;;;;;;4.39;3.03;;;;;;;20.24;32.40;101281.60;;;;-57
2020/04/15 11:57:03;;;;;;;2.28;2.07;;;;;;;20.24;32.53;101278.13;;;;-58
2020/04/15 12:00:03;;;;;;;4.20;3.50;;;;;;;20.26;32.39;101274.89;;;;-58
2020/04/15 12:03:02;;;;;;;2.44;1.66;;;;;;;20.26;32.44;101268.52;;;;-60
2020/04/15 12:06:02;;;;;;;3.34;3.07;;;;;;;20.26;32.55;101268.96;;;;-58
2020/04/15 12:09:03;;;;;;;3.53;3.21;;;;;;;20.26;32.45;101264.64;;;;-58
2020/04/15 12:12:02;;;;;;;1.82;1.59;;;;;;;20.26;32.39;101265.48;;;;-58
2020/04/15 12:15:02;;;;;;;2.65;1.88;;;;;;;20.26;32.42;101257.89;;;;-58
2020/04/15 12:18:03;;;;;;;2.01;1.82;;;;;;;20.26;32.45;101251.29;;;;-58
2020/04/15 12:21:02;;;;;;;6.09;5.63;;;;;;;20.27;32.41;101249.50;;;;-58
2020/04/15 12:26:03;;;;;;;8.81;5.85;;;;;;;20.30;33.00;101233.68;;;;-53
2020/04/15 12:30:02;;;;;;;3.20;1.70;;;;;;;20.32;32.85;101234.90;;;;-56
2020/04/15 12:35:03;;;;;;;1.97;1.60;;;;;;;20.34;32.63;101223.20;;;;-58
2020/04/15 12:40:02;;;;;;;1.75;1.65;;;;;;;20.37;32.80;101218.23;;;;-54
2020/04/15 12:49:29;;;;;;;2.04;1.52;;;;;;;20.41;32.66;101214.41;;;;-55
2020/04/15 12:53:29;;;;;;;2.35;1.49;;;;;;;20.42;32.78;101205.80;;;;-53
2020/04/15 12:59:28;;;;;;;3.12;1.50;;;;;;;20.44;32.53;101198.45;;;;-53
2020/04/15 13:03:28;;;;;;;4.34;1.78;;;;;;;20.45;33.10;101190.28;;;;-56
2020/04/15 13:06:29;;;;;;;2.43;1.71;;;;;;;20.45;32.91;101187.44;;;;-52
2020/04/15 13:09:29;;;;;;;1.83;1.50;;;;;;;20.43;32.02;101182.75;;;;-52
2020/04/15 13:12:29;;;;;;;2.85;1.78;;;;;;;20.42;31.64;101176.54;;;;-53
2020/04/15 13:15:29;;;;;;;4.05;1.60;;;;;;;20.41;31.04;101169.77;;;;-51
2020/04/15 13:18:28;;;;;;;2.55;1.73;;;;;;;20.39;31.02;101167.66;;;;-52
2020/04/15 13:21:28;;;;;;;4.29;1.70;;;;;;;20.38;30.94;101167.55;;;;-53
2020/04/15 13:24:29;;;;;;;2.07;1.72;;;;;;;20.37;30.82;101158.66;;;;-52
2020/04/15 13:27:28;;;;;;;2.19;1.60;;;;;;;20.37;30.87;101158.94;;;;-53
2020/04/15 13:30:28;;;;;;;3.34;1.67;;;;;;;20.36;30.71;101158.72;;;;-52
2020/04/15 13:33:28;;;;;;;2.37;1.65;;;;;;;20.35;30.69;101146.48;;;;-53
2020/04/15 13:36:28;;;;;;;1.94;1.60;;;;;;;20.33;30.67;101144.31;;;;-54
2020/04/15 13:39:29;;;;;;;2.89;1.60;;;;;;;20.34;30.78;101135.36;;;;-53
2020/04/15 13:42:29;;;;;;;1.85;1.60;;;;;;;20.33;30.68;101132.40;;;;-54
2020/04/15 13:45:28;;;;;;;1.95;1.53;;;;;;;20.33;30.56;101126.64;;;;-53
2020/04/15 13:48:28;;;;;;;2.28;1.66;;;;;;;20.33;30.33;101127.65;;;;-53
2020/04/15 13:51:29;;;;;;;2.51;1.71;;;;;;;20.32;30.21;101127.14;;;;-52
2020/04/15 13:54:29;;;;;;;2.59;1.69;;;;;;;20.32;30.41;101119.09;;;;-53
2020/04/15 13:57:29;;;;;;;2.09;1.61;;;;;;;20.32;30.40;101116.06;;;;-52
2020/04/15 14:00:29;;;;;;;2.35;1.63;;;;;;;20.32;30.79;101109.02;;;;-53
2020/04/15 14:03:28;;;;;;;4.88;1.85;;;;;;;20.33;31.00;101098.00;;;;-52
2020/04/15 14:06:29;;;;;;;2.51;1.91;;;;;;;20.34;31.24;101103.75;;;;-50
2020/04/15 14:09:28;;;;;;;3.31;1.60;;;;;;;20.33;31.18;101093.04;;;;-51
2020/04/15 14:12:28;;;;;;;2.68;1.55;;;;;;;20.34;31.44;101094.26;;;;-53
2020/04/15 14:15:28;;;;;;;2.93;1.67;;;;;;;20.33;31.44;101089.28;;;;-52
2020/04/15 14:18:29;;;;;;;1.75;1.40;;;;;;;20.33;31.39;101090.02;;;;-52
2020/04/15 14:21:29;;;;;;;2.77;1.60;;;;;;;20.33;31.44;101085.98;;;;-53
2020/04/15 14:24:28;;;;;;;2.36;1.50;;;;;;;20.33;31.45;101081.69;;;;-51
2020/04/15 14:27:28;;;;;;;1.82;1.59;;;;;;;20.32;31.52;101083.52;;;;-52
2020/04/15 14:30:28;;;;;;;1.79;1.59;;;;;;;20.32;31.65;101078.89;;;;-52
2020/04/15 14:33:29;;;;;;;2.29;1.59;;;;;;;20.31;31.64;101074.66;;;;-51
2020/04/15 14:36:28;;;;;;;1.71;1.47;;;;;;;20.31;31.76;101067.27;;;;-52
2020/04/15 14:39:28;;;;;;;1.93;1.53;;;;;;;20.31;31.77;101071.45;;;;-52
2020/04/15 14:42:29;;;;;;;3.24;1.50;;;;;;;20.29;32.12;101071.23;;;;-56
2020/04/15 14:45:29;;;;;;;2.94;1.59;;;;;;;20.30;32.25;101069.12;;;;-52
2020/04/15 14:48:29;;;;;;;3.41;1.69;;;;;;;20.30;32.46;101067.09;;;;-56
2020/04/15 14:51:28;;;;;;;3.45;1.61;;;;;;;20.30;32.53;101058.53;;;;-56
2020/04/15 14:54:29;;;;;;;5.02;1.61;;;;;;;20.32;32.72;101056.47;;;;-54
2020/04/15 14:57:28;;;;;;;7.13;1.72;;;;;;;20.32;31.85;101051.61;;;;-58
2020/04/15 15:00:28;;;;;;;5.60;1.80;;;;;;;20.30;32.00;101047.42;;;;-53
2020/04/15 15:03:29;;;;;;;4.22;1.59;;;;;;;20.30;32.28;101045.97;;;;-53
2020/04/15 15:06:28;;;;;;;5.15;1.69;;;;;;;20.28;32.17;101045.34;;;;-55
2020/04/15 15:09:29;;;;;;;4.27;1.73;;;;;;;20.27;32.15;101042.12;;;;-55
2020/04/15 15:12:28;;;;;;;2.93;1.60;;;;;;;20.27;32.04;101039.95;;;;-50
2020/04/15 15:15:29;;;;;;;2.80;1.80;;;;;;;20.26;32.05;101036.55;;;;-52
2020/04/15 15:18:28;;;;;;;1.89;1.56;;;;;;;20.26;31.96;101032.35;;;;-52
2020/04/15 15:21:28;;;;;;;2.75;1.59;;;;;;;20.26;32.00;101032.63;;;;-50
2020/04/15 15:24:29;;;;;;;3.98;1.67;;;;;;;20.25;31.85;101025.70;;;;-58
2020/04/15 15:27:28;;;;;;;8.98;2.30;;;;;;;20.26;32.31;101022.95;;;;-51
2020/04/15 15:30:29;;;;;;;5.84;1.70;;;;;;;20.25;32.45;101022.55;;;;-53
2020/04/15 15:33:28;;;;;;;4.93;1.73;;;;;;;20.26;32.69;101019.77;;;;-51
2020/04/15 15:36:28;;;;;;;3.63;1.92;;;;;;;20.26;32.70;101020.11;;;;-58
2020/04/15 15:39:28;;;;;;;3.75;1.68;;;;;;;20.26;32.77;101021.78;;;;-53
2020/04/15 15:42:29;;;;;;;8.23;1.89;;;;;;;20.25;32.88;101022.05;;;;-56
2020/04/15 15:45:28;;;;;;;3.03;1.59;;;;;;;20.25;33.06;101019.87;;;;-50
2020/04/15 15:48:29;;;;;;;9.09;1.98;;;;;;;20.27;33.08;101015.84;;;;-53
2020/04/15 15:51:29;;;;;;;4.97;1.89;;;;;;;20.26;33.07;101014.67;;;;-53
2020/04/15 15:54:28;;;;;;;6.29;1.79;;;;;;;20.25;33.21;101015.91;;;;-53
2020/04/15 15:57:29;;;;;;;2.65;1.60;;;;;;;20.24;33.12;101007.47;;;;-55
2020/04/15 16:00:28;;;;;;;3.44;1.61;;;;;;;20.24;33.20;101009.08;;;;-50
2020/04/15 16:03:29;;;;;;;3.90;1.63;;;;;;;20.24;33.13;101001.66;;;;-51
2020/04/15 16:06:28;;;;;;;5.35;1.71;;;;;;;20.24;33.07;101000.05;;;;-49
2020/04/15 16:09:28;;;;;;;2.55;1.69;;;;;;;20.22;33.06;100998.25;;;;-50
2020/04/15 16:12:29;;;;;;;4.31;1.72;;;;;;;20.22;33.16;100995.73;;;;-54
2020/04/15 16:15:29;;;;;;;6.45;1.78;;;;;;;20.22;33.11;100992.11;;;;-53
2020/04/15 16:18:28;;;;;;;5.27;1.67;;;;;;;20.22;33.19;100997.30;;;;-49
2020/04/15 16:21:28;;;;;;;4.35;1.73;;;;;;;20.22;33.19;100993.78;;;;-52
2020/04/15 16:24:28;;;;;;;3.71;1.52;;;;;;;20.21;33.22;100989.03;;;;-53
2020/04/15 16:27:28;;;;;;;3.18;1.59;;;;;;;20.21;33.22;100984.67;;;;-52
2020/04/15 16:30:28;;;;;;;3.67;1.66;;;;;;;20.20;33.18;100987.20;;;;-51
2020/04/15 16:33:28;;;;;;;2.21;1.47;;;;;;;20.20;33.19;100987.88;;;;-54
2020/04/15 16:36:28;;;;;;;3.92;1.62;;;;;;;20.20;33.22;100987.55;;;;-52
2020/04/15 16:39:28;;;;;;;2.23;1.60;;;;;;;20.20;33.11;100981.59;;;;-53
2020/04/15 16:42:28;;;;;;;6.01;1.80;;;;;;;20.20;33.00;100974.22;;;;-46
2020/04/15 16:45:28;;;;;;;4.06;1.56;;;;;;;20.17;33.08;100972.06;;;;-46
2020/04/15 16:48:29;;;;;;;3.09;1.55;;;;;;;20.15;33.04;100963.84;;;;-46
2020/04/15 16:51:28;;;;;;;3.17;1.57;;;;;;;20.14;33.10;100966.48;;;;-46
2020/04/15 16:54:28;;;;;;;3.00;1.70;;;;;;;20.12;33.07;100968.30;;;;-46
2020/04/15 16:57:28;;;;;;;4.76;1.70;;;;;;;20.10;33.06;100957.91;;;;-46
2020/04/15 17:00:28;;;;;;;1.75;1.50;;;;;;;20.08;33.04;100953.45;;;;-46
2020/04/15 17:03:29;;;;;;;3.14;1.68;;;;;;;20.07;32.99;100953.66;;;;-46